Time;durP1;ratioP1;P1;durP2;ratioP2;P2;SDS_P1;SDS_P2;PMS_P1;PMS_P2;Temp;Humidity;BMP_temperature;BMP_pressure;BME280_temperature;BME280_humidity;BME280_pressure;Samples;Min_cycle;Max_cycle;Signal;HPM_P1;HPM_P2
2023/01/25 00:00:09;;;;;;;22.03;13.10;;;1.20;99.90;;;;;;5055571;28;20480;-83
2023/01/25 00:02:45;;;;;;;28.40;15.40;;;1.30;99.90;;;;;;5060461;28;20990;-83
2023/01/25 00:05:12;;;;;;;26.77;15.13;;;1.30;99.90;;;;;;5061101;28;20849;-83
2023/01/25 00:07:42;;;;;;;23.27;15.97;;;1.20;99.90;;;;;;5060310;28;20553;-83
2023/01/25 00:10:10;;;;;;;28.87;16.33;;;1.20;99.90;;;;;;5051910;28;20494;-84
2023/01/25 00:12:40;;;;;;;21.07;13.90;;;1.20;99.90;;;;;;5055227;28;20931;-83
2023/01/25 00:15:12;;;;;;;26.10;16.80;;;1.30;99.90;;;;;;5055127;28;20448;-83
2023/01/25 00:17:44;;;;;;;19.73;13.90;;;1.30;99.90;;;;;;5051768;28;20488;-83
2023/01/25 00:20:11;;;;;;;32.73;13.80;;;1.30;99.90;;;;;;5059554;28;20799;-83
2023/01/25 00:22:38;;;;;;;22.30;13.80;;;1.30;99.90;;;;;;5059237;28;20533;-83
2023/01/25 00:25:08;;;;;;;23.00;12.77;;;1.20;99.90;;;;;;5056418;28;20573;-83
2023/01/25 00:27:35;;;;;;;20.40;13.00;;;1.20;99.90;;;;;;5058012;28;20618;-84
2023/01/25 00:30:02;;;;;;;22.37;14.30;;;1.30;99.90;;;;;;5060129;28;21003;-83
2023/01/25 00:32:50;;;;;;;20.17;12.10;;;1.20;99.90;;;;;;5064476;28;20529;-83
2023/01/25 00:35:20;;;;;;;23.87;14.83;;;1.20;99.90;;;;;;5065721;28;20496;-83
2023/01/25 00:37:49;;;;;;;21.97;14.33;;;1.20;99.90;;;;;;5058605;28;20475;-83
2023/01/25 00:40:17;;;;;;;33.57;12.57;;;1.20;99.90;;;;;;5065721;28;20486;-83
2023/01/25 00:42:52;;;;;;;23.27;13.80;;;1.30;99.90;;;;;;5056944;28;20448;-83
2023/01/25 00:45:19;;;;;;;21.30;12.37;;;1.30;99.90;;;;;;5053429;28;20464;-83
2023/01/25 00:47:48;;;;;;;19.47;14.30;;;1.30;99.90;;;;;;5064775;28;20888;-83
2023/01/25 00:50:15;;;;;;;20.80;13.60;;;1.30;99.90;;;;;;5060770;28;20553;-84
2023/01/25 00:52:42;;;;;;;25.60;13.33;;;1.20;99.90;;;;;;5050315;28;20464;-84
2023/01/25 00:55:12;;;;;;;16.33;10.90;;;1.20;99.90;;;;;;5063094;28;20831;-83
2023/01/25 00:57:39;;;;;;;24.57;12.37;;;1.20;99.90;;;;;;5059930;28;20452;-83
2023/01/25 01:00:07;;;;;;;19.90;12.47;;;1.20;99.90;;;;;;5062423;28;20480;-83
2023/01/25 01:02:34;;;;;;;20.97;12.33;;;1.30;99.90;;;;;;5060681;28;20533;-83
2023/01/25 01:05:02;;;;;;;21.47;13.57;;;1.30;99.90;;;;;;5057522;28;20476;-83
2023/01/25 01:07:29;;;;;;;20.63;13.17;;;1.30;99.90;;;;;;5057291;28;20471;-83
2023/01/25 01:09:56;;;;;;;17.67;12.70;;;1.30;99.90;;;;;;5065710;28;20875;-82
2023/01/25 01:12:23;;;;;;;21.00;14.23;;;1.30;99.90;;;;;;5053507;28;20496;-81
2023/01/25 01:14:50;;;;;;;21.17;14.43;;;1.40;99.90;;;;;;5062940;28;20517;-81
2023/01/25 01:17:22;;;;;;;19.60;12.97;;;1.30;99.90;;;;;;5053058;28;20537;-82
2023/01/25 01:19:49;;;;;;;17.93;10.63;;;1.20;99.90;;;;;;5059829;28;20509;-82
2023/01/25 01:22:17;;;;;;;13.10;10.63;;;1.20;99.90;;;;;;5056125;28;20560;-82
2023/01/25 01:24:46;;;;;;;21.17;11.23;;;1.20;99.90;;;;;;5055911;28;20544;-82
2023/01/25 01:27:15;;;;;;;18.40;11.33;;;1.30;99.90;;;;;;5054498;28;20599;-82
2023/01/25 01:29:44;;;;;;;18.63;12.20;;;1.30;99.90;;;;;;5053129;28;20621;-82
2023/01/25 01:32:11;;;;;;;15.80;10.50;;;1.20;99.90;;;;;;5056338;28;20940;-82
2023/01/25 01:34:38;;;;;;;13.50;8.83;;;1.20;99.90;;;;;;5046788;28;20587;-82
2023/01/25 01:37:05;;;;;;;15.43;10.50;;;1.20;99.90;;;;;;5058831;28;20530;-82
2023/01/25 01:39:36;;;;;;;20.23;13.27;;;1.20;99.90;;;;;;5061424;28;20962;-82
2023/01/25 01:42:05;;;;;;;18.63;12.27;;;1.30;99.90;;;;;;5061585;28;20779;-82
2023/01/25 01:44:45;;;;;;;18.80;12.07;;;1.30;99.90;;;;;;5056753;28;20858;-82
2023/01/25 01:47:16;;;;;;;16.20;11.73;;;1.30;99.90;;;;;;5064181;28;20830;-82
2023/01/25 01:49:46;;;;;;;15.13;9.10;;;1.30;99.90;;;;;;5061972;28;20512;-82
2023/01/25 01:52:20;;;;;;;16.77;10.27;;;1.30;99.90;;;;;;5058919;28;20565;-82
2023/01/25 01:54:55;;;;;;;13.40;9.07;;;1.30;99.90;;;;;;5060964;28;20492;-82
2023/01/25 01:57:25;;;;;;;15.80;10.20;;;1.20;99.90;;;;;;5062218;28;20465;-82
2023/01/25 01:59:57;;;;;;;15.63;10.90;;;1.20;99.90;;;;;;5061951;28;20436;-82
2023/01/25 02:02:25;;;;;;;12.80;8.90;;;1.30;99.90;;;;;;5065661;28;20549;-82
2023/01/25 02:04:56;;;;;;;14.80;10.97;;;1.30;99.90;;;;;;5064160;28;20493;-82
2023/01/25 02:07:27;;;;;;;14.07;8.67;;;1.30;99.90;;;;;;5060351;28;20573;-82
2023/01/25 02:09:55;;;;;;;17.57;11.20;;;1.30;99.90;;;;;;5057218;28;20492;-82
2023/01/25 02:12:24;;;;;;;19.77;11.23;;;1.30;99.90;;;;;;5060546;28;21014;-82
2023/01/25 02:14:53;;;;;;;16.27;11.00;;;1.30;99.90;;;;;;5045082;28;20538;-82
2023/01/25 02:17:24;;;;;;;18.10;12.70;;;1.20;99.90;;;;;;5055706;28;20660;-82
2023/01/25 02:19:56;;;;;;;19.77;11.00;;;1.20;99.90;;;;;;5059119;28;20484;-82
2023/01/25 02:22:31;;;;;;;19.27;11.83;;;1.20;99.90;;;;;;5058093;28;20588;-82
2023/01/25 02:25:05;;;;;;;18.57;12.30;;;1.20;99.90;;;;;;5055511;28;20507;-82
2023/01/25 02:27:34;;;;;;;16.07;9.73;;;1.20;99.90;;;;;;5053636;28;20448;-82
2023/01/25 02:30:03;;;;;;;13.57;8.10;;;1.20;99.90;;;;;;5061429;28;20492;-82
2023/01/25 02:32:30;;;;;;;11.23;8.77;;;1.20;99.90;;;;;;5058837;28;20561;-82
2023/01/25 02:34:56;;;;;;;14.77;8.67;;;1.20;99.90;;;;;;5059724;28;20510;-82
2023/01/25 02:37:28;;;;;;;12.40;9.20;;;1.20;99.90;;;;;;5064048;28;20456;-82
2023/01/25 02:39:55;;;;;;;17.17;10.80;;;1.20;99.90;;;;;;5062175;28;20484;-82
2023/01/25 02:42:23;;;;;;;10.90;9.00;;;1.20;99.90;;;;;;5060644;28;20500;-82
2023/01/25 02:44:51;;;;;;;15.80;9.97;;;1.20;99.90;;;;;;5061332;28;20519;-82
2023/01/25 02:47:18;;;;;;;16.77;11.00;;;1.30;99.90;;;;;;5055704;28;20574;-82
2023/01/25 02:49:47;;;;;;;15.77;12.00;;;1.30;99.90;;;;;;5061793;28;20565;-82
2023/01/25 02:52:17;;;;;;;17.73;11.00;;;1.20;99.90;;;;;;5056614;28;20464;-82
2023/01/25 02:54:47;;;;;;;23.83;11.83;;;1.30;99.90;;;;;;5061495;28;20452;-82
2023/01/25 02:57:17;;;;;;;15.20;10.27;;;1.20;99.90;;;;;;5055301;28;20492;-82
2023/01/25 02:59:45;;;;;;;14.23;11.43;;;1.30;99.90;;;;;;5062131;28;20523;-82
2023/01/25 03:02:12;;;;;;;16.63;10.43;;;1.20;99.90;;;;;;5060526;28;20617;-82
2023/01/25 03:04:39;;;;;;;17.93;11.20;;;1.20;99.90;;;;;;5061713;28;21059;-82
2023/01/25 03:07:06;;;;;;;14.40;9.70;;;1.30;99.90;;;;;;5061202;28;20483;-82
2023/01/25 03:09:41;;;;;;;16.57;10.10;;;1.30;99.90;;;;;;5061058;28;20500;-82
2023/01/25 03:12:08;;;;;;;17.47;10.70;;;1.20;99.90;;;;;;5053446;28;20483;-82
2023/01/25 03:14:35;;;;;;;18.57;10.87;;;1.20;99.90;;;;;;5047657;28;20453;-82
2023/01/25 03:17:04;;;;;;;16.40;11.90;;;1.20;99.90;;;;;;5046984;28;20480;-82
2023/01/25 03:19:31;;;;;;;17.00;9.80;;;1.20;99.90;;;;;;5055703;28;20792;-82
2023/01/25 03:21:58;;;;;;;15.97;11.07;;;1.10;99.90;;;;;;5050985;28;20522;-82
2023/01/25 03:24:25;;;;;;;13.27;9.63;;;1.20;99.90;;;;;;5063746;28;20533;-82
2023/01/25 03:29:35;;;;;;;13.40;11.00;;;1.20;99.90;;;;;;5049035;28;20440;-82
2023/01/25 03:32:04;;;;;;;16.13;10.70;;;1.20;99.90;;;;;;5058350;28;20490;-82
2023/01/25 03:34:31;;;;;;;18.97;10.53;;;1.20;99.90;;;;;;5050237;28;20851;-81
2023/01/25 03:36:57;;;;;;;21.43;12.30;;;1.10;99.90;;;;;;5060400;28;20496;-82
2023/01/25 03:39:24;;;;;;;15.63;9.57;;;1.10;99.90;;;;;;5051389;28;20491;-82
2023/01/25 03:41:51;;;;;;;15.00;9.77;;;1.10;99.90;;;;;;5050060;28;20476;-82
2023/01/25 03:44:18;;;;;;;17.20;10.47;;;1.10;99.90;;;;;;5053228;28;20509;-82
2023/01/25 03:46:45;;;;;;;17.10;10.20;;;1.10;99.90;;;;;;5056703;28;20476;-82
2023/01/25 03:49:14;;;;;;;17.27;11.40;;;1.10;99.90;;;;;;5055526;28;20487;-82
2023/01/25 03:51:40;;;;;;;13.80;10.80;;;1.10;99.90;;;;;;5059142;28;20492;-82
2023/01/25 03:54:09;;;;;;;14.57;10.93;;;1.10;99.90;;;;;;5057261;28;21024;-82
2023/01/25 03:56:39;;;;;;;19.60;12.10;;;1.10;99.90;;;;;;5061506;28;20852;-82
2023/01/25 03:59:06;;;;;;;18.50;13.30;;;1.10;99.90;;;;;;5048947;28;20535;-82
2023/01/25 04:01:33;;;;;;;20.00;11.43;;;1.20;99.90;;;;;;5061857;28;20805;-82
2023/01/25 04:04:00;;;;;;;17.07;11.67;;;1.20;99.90;;;;;;5062311;28;20521;-82
2023/01/25 04:06:33;;;;;;;16.17;11.73;;;1.20;99.90;;;;;;5059170;28;20464;-82
2023/01/25 04:09:03;;;;;;;17.63;12.83;;;1.20;99.90;;;;;;5064809;28;20789;-82
2023/01/25 04:11:32;;;;;;;23.40;13.63;;;1.20;99.90;;;;;;5060503;28;20560;-82
2023/01/25 04:14:02;;;;;;;19.30;12.30;;;1.20;99.90;;;;;;5060345;28;20492;-82
2023/01/25 04:16:30;;;;;;;19.23;11.00;;;1.10;99.90;;;;;;5061437;28;20460;-82
2023/01/25 04:18:57;;;;;;;17.53;11.27;;;1.10;99.90;;;;;;5053208;28;20469;-82
2023/01/25 04:21:33;;;;;;;16.03;11.50;;;1.10;99.90;;;;;;5063991;28;20529;-82
2023/01/25 04:24:01;;;;;;;16.83;10.60;;;1.10;99.90;;;;;;5059470;28;20484;-82
2023/01/25 04:26:28;;;;;;;19.57;11.97;;;1.10;99.90;;;;;;5062181;28;20483;-82
2023/01/25 04:29:00;;;;;;;23.40;12.97;;;1.10;99.90;;;;;;5050834;28;21307;-82
2023/01/25 04:31:27;;;;;;;14.33;10.70;;;1.10;99.90;;;;;;5059408;28;20555;-82
2023/01/25 04:33:54;;;;;;;16.03;10.20;;;1.10;99.90;;;;;;5063321;28;20970;-82
2023/01/25 04:36:24;;;;;;;18.97;11.80;;;1.10;99.90;;;;;;5062519;28;20538;-82
2023/01/25 04:38:54;;;;;;;21.23;13.57;;;1.10;99.90;;;;;;5063271;28;20481;-82
2023/01/25 04:41:25;;;;;;;21.53;13.13;;;1.10;99.90;;;;;;5062118;28;20786;-82
2023/01/25 04:43:52;;;;;;;17.93;12.10;;;1.20;99.90;;;;;;5061383;28;20908;-82
2023/01/25 04:46:19;;;;;;;15.27;11.33;;;1.10;99.90;;;;;;5054209;28;20488;-82
2023/01/25 04:48:48;;;;;;;24.10;12.67;;;1.10;99.90;;;;;;5054955;28;20541;-82
2023/01/25 04:51:18;;;;;;;14.10;10.60;;;1.10;99.90;;;;;;5054708;28;20519;-82
2023/01/25 04:53:45;;;;;;;21.80;13.10;;;1.00;99.90;;;;;;5058317;28;20881;-82
2023/01/25 04:56:16;;;;;;;17.90;10.70;;;1.00;99.90;;;;;;5063431;28;20540;-82
2023/01/25 04:58:45;;;;;;;20.63;11.83;;;1.10;99.90;;;;;;5050636;28;20545;-82
2023/01/25 05:01:12;;;;;;;17.20;11.87;;;1.00;99.90;;;;;;5061707;28;20951;-82
2023/01/25 05:03:39;;;;;;;15.63;10.87;;;1.00;99.90;;;;;;5064179;28;20462;-82
2023/01/25 05:06:08;;;;;;;28.70;12.87;;;1.00;99.90;;;;;;5063647;28;20870;-82
2023/01/25 05:08:35;;;;;;;13.00;10.87;;;1.00;99.90;;;;;;5054220;28;20471;-82
2023/01/25 05:11:02;;;;;;;17.70;11.00;;;1.00;99.90;;;;;;5058203;28;20597;-82
2023/01/25 05:13:29;;;;;;;16.87;13.20;;;1.00;99.90;;;;;;5065159;28;20517;-82
2023/01/25 05:15:57;;;;;;;19.63;13.73;;;1.00;99.90;;;;;;5051769;28;20928;-82
2023/01/25 05:18:24;;;;;;;32.60;22.63;;;1.00;99.90;;;;;;5059104;28;20913;-82
2023/01/25 05:20:55;;;;;;;49.03;27.03;;;1.10;99.90;;;;;;5058490;28;20449;-82
2023/01/25 05:23:23;;;;;;;40.37;23.20;;;1.00;99.90;;;;;;5054078;28;20826;-82
2023/01/25 05:28:39;;;;;;;32.93;18.60;;;0.90;99.90;;;;;;5054957;28;20518;-82
2023/01/25 05:31:07;;;;;;;48.83;27.23;;;1.00;99.90;;;;;;5061239;28;20523;-82
2023/01/25 05:33:34;;;;;;;73.87;38.43;;;1.00;99.90;;;;;;5060058;28;20518;-82
2023/01/25 05:36:01;;;;;;;136.43;64.43;;;1.00;99.90;;;;;;5057718;28;20493;-82
2023/01/25 05:38:29;;;;;;;28.00;16.20;;;1.10;99.90;;;;;;5062677;28;20444;-82
2023/01/25 05:40:58;;;;;;;32.00;17.33;;;1.10;99.90;;;;;;5063720;28;20550;-82
2023/01/25 05:43:25;;;;;;;21.50;13.47;;;1.10;99.90;;;;;;5063226;28;20827;-82
2023/01/25 05:45:53;;;;;;;20.73;12.90;;;1.10;99.90;;;;;;5058802;28;20496;-82
2023/01/25 05:48:24;;;;;;;19.20;13.33;;;1.10;99.90;;;;;;5064305;28;20835;-82
2023/01/25 05:50:51;;;;;;;16.70;11.60;;;1.10;99.90;;;;;;5063494;28;20491;-82
2023/01/25 05:53:18;;;;;;;22.40;13.40;;;1.10;99.90;;;;;;5059266;28;20519;-82
2023/01/25 05:55:45;;;;;;;20.73;12.43;;;1.10;99.90;;;;;;5058400;28;20811;-81
2023/01/25 05:58:12;;;;;;;17.00;11.77;;;1.20;99.90;;;;;;5057984;28;21135;-82
2023/01/25 06:00:39;;;;;;;18.27;12.13;;;1.10;99.90;;;;;;5059448;28;20463;-82
2023/01/25 06:03:05;;;;;;;16.60;10.23;;;1.10;99.90;;;;;;5060004;28;20509;-82
2023/01/25 06:05:34;;;;;;;14.70;10.90;;;1.10;99.90;;;;;;5060987;28;20488;-83
2023/01/25 06:08:02;;;;;;;18.20;12.00;;;1.00;99.90;;;;;;5057564;28;21135;-82
2023/01/25 06:10:29;;;;;;;17.90;12.40;;;1.00;99.90;;;;;;5060989;28;20484;-82
2023/01/25 06:13:01;;;;;;;16.83;11.30;;;1.00;99.90;;;;;;5060916;28;20626;-82
2023/01/25 06:15:28;;;;;;;15.40;11.67;;;1.00;99.90;;;;;;5061466;28;20565;-82
2023/01/25 06:17:55;;;;;;;13.53;10.83;;;1.10;99.90;;;;;;5056504;28;20533;-82
2023/01/25 06:20:22;;;;;;;19.20;12.43;;;1.00;99.90;;;;;;5056741;28;20508;-82
2023/01/25 06:22:54;;;;;;;20.20;12.07;;;0.90;99.90;;;;;;5053662;28;20453;-82
2023/01/25 06:25:21;;;;;;;16.60;11.30;;;0.80;99.90;;;;;;5059479;28;21776;-82
2023/01/25 06:27:48;;;;;;;17.27;12.10;;;0.80;99.90;;;;;;5059884;28;20495;-82
2023/01/25 06:30:15;;;;;;;19.20;12.10;;;0.80;99.90;;;;;;5061547;28;20936;-82
2023/01/25 06:32:42;;;;;;;21.40;12.47;;;0.90;99.90;;;;;;5063798;28;20591;-82
2023/01/25 06:35:12;;;;;;;15.60;11.23;;;0.80;99.90;;;;;;5054512;28;20862;-82
2023/01/25 06:37:48;;;;;;;18.77;11.40;;;0.80;99.90;;;;;;5050812;28;20510;-82
2023/01/25 06:40:17;;;;;;;19.53;12.80;;;0.80;99.90;;;;;;5060164;28;20583;-82
2023/01/25 06:42:44;;;;;;;18.00;11.53;;;0.80;99.90;;;;;;5057713;28;20491;-82
2023/01/25 06:45:11;;;;;;;18.93;11.77;;;0.90;99.90;;;;;;5056771;28;20500;-82
2023/01/25 06:47:38;;;;;;;16.30;11.87;;;1.00;99.90;;;;;;5048549;28;20474;-83
2023/01/25 06:50:06;;;;;;;24.03;13.10;;;0.90;99.90;;;;;;5050831;28;20913;-82
2023/01/25 06:52:35;;;;;;;19.27;12.07;;;0.80;99.90;;;;;;5054705;28;20650;-82
2023/01/25 06:55:02;;;;;;;23.37;13.83;;;0.80;99.90;;;;;;5056366;28;20468;-83
2023/01/25 06:57:32;;;;;;;23.27;12.73;;;0.80;99.90;;;;;;5058147;28;20566;-82
2023/01/25 07:00:02;;;;;;;20.53;13.70;;;0.80;99.90;;;;;;5052939;28;20525;-83
2023/01/25 07:02:31;;;;;;;19.77;12.70;;;0.80;99.90;;;;;;5061935;28;20935;-82
2023/01/25 07:04:58;;;;;;;18.97;11.40;;;0.80;99.90;;;;;;5051635;28;20475;-82
2023/01/25 07:07:24;;;;;;;20.47;13.40;;;0.80;99.90;;;;;;5062490;28;20578;-82
2023/01/25 07:09:52;;;;;;;19.93;13.43;;;0.90;99.90;;;;;;5055216;28;21169;-82
2023/01/25 07:12:21;;;;;;;24.90;14.00;;;1.00;99.90;;;;;;5058575;28;20991;-82
2023/01/25 07:14:53;;;;;;;38.40;25.83;;;1.00;99.90;;;;;;5059818;28;20475;-82
2023/01/25 07:17:25;;;;;;;25.07;16.90;;;0.90;99.90;;;;;;5069297;28;20933;-82
2023/01/25 07:19:57;;;;;;;19.47;13.53;;;0.90;99.90;;;;;;5056706;28;20470;-83
2023/01/25 07:22:29;;;;;;;30.37;18.50;;;0.90;99.90;;;;;;5055567;28;20479;-82
2023/01/25 07:24:57;;;;;;;38.70;26.00;;;0.80;99.90;;;;;;5049172;28;20820;-82
2023/01/25 07:27:24;;;;;;;35.67;28.50;;;0.90;99.90;;;;;;5059834;28;20522;-81
2023/01/25 07:29:53;;;;;;;23.13;14.43;;;0.90;99.90;;;;;;5057218;28;20484;-82
2023/01/25 07:32:23;;;;;;;27.43;20.33;;;0.90;99.90;;;;;;5060217;28;20883;-81
2023/01/25 07:34:50;;;;;;;26.80;17.70;;;0.90;99.90;;;;;;5058093;28;20955;-82
2023/01/25 07:37:17;;;;;;;26.17;21.27;;;0.90;99.90;;;;;;5067036;28;20451;-82
2023/01/25 07:39:49;;;;;;;21.77;14.33;;;1.00;99.90;;;;;;5067398;28;20476;-82
2023/01/25 07:42:16;;;;;;;19.30;13.60;;;0.90;99.90;;;;;;5077951;28;20448;-82
2023/01/25 07:44:43;;;;;;;28.03;19.73;;;0.90;99.90;;;;;;5060466;28;20496;-82
2023/01/25 07:47:12;;;;;;;22.23;16.03;;;0.90;99.90;;;;;;5061506;28;20839;-82
2023/01/25 07:49:38;;;;;;;24.70;16.93;;;1.00;99.90;;;;;;5057582;28;20928;-82
2023/01/25 07:52:05;;;;;;;19.60;13.80;;;0.90;99.90;;;;;;5056868;28;21189;-82
2023/01/25 07:54:32;;;;;;;28.27;18.37;;;0.90;99.90;;;;;;5066266;28;20474;-82
2023/01/25 07:56:59;;;;;;;21.07;13.70;;;0.90;99.90;;;;;;5058896;28;20487;-83
2023/01/25 07:59:30;;;;;;;18.77;12.97;;;1.10;99.90;;;;;;5066093;28;20487;-82
2023/01/25 08:01:57;;;;;;;21.20;15.40;;;1.10;99.90;;;;;;5053051;28;20464;-82
2023/01/25 08:04:26;;;;;;;22.23;14.43;;;1.00;99.90;;;;;;5056837;28;20502;-82
2023/01/25 08:06:52;;;;;;;19.63;12.77;;;1.00;99.90;;;;;;5066902;28;20492;-82
2023/01/25 08:09:22;;;;;;;22.27;14.67;;;1.00;99.90;;;;;;5072765;28;20521;-82
2023/01/25 08:11:49;;;;;;;23.87;14.37;;;1.00;99.90;;;;;;5060230;28;20614;-82
2023/01/25 08:14:16;;;;;;;22.27;14.07;;;1.00;99.90;;;;;;5066470;28;20828;-82
2023/01/25 08:16:43;;;;;;;21.90;13.73;;;1.00;99.90;;;;;;5067668;28;20475;-82
2023/01/25 08:19:13;;;;;;;23.00;14.53;;;1.10;99.90;;;;;;5068573;28;20495;-82
2023/01/25 08:21:41;;;;;;;21.30;13.00;;;1.00;99.90;;;;;;5068642;28;20460;-82
2023/01/25 08:24:08;;;;;;;30.33;18.00;;;0.90;99.90;;;;;;5063083;28;20468;-82
2023/01/25 08:26:39;;;;;;;27.70;18.53;;;1.00;99.90;;;;;;5062491;28;20814;-82
2023/01/25 08:29:07;;;;;;;21.57;12.43;;;1.10;99.90;;;;;;5058732;28;20499;-82
2023/01/25 08:31:35;;;;;;;24.73;15.87;;;1.10;99.90;;;;;;5064401;28;20587;-82
2023/01/25 08:34:02;;;;;;;20.33;14.47;;;1.10;99.90;;;;;;5075965;28;20491;-84
2023/01/25 08:36:29;;;;;;;22.30;14.80;;;1.10;99.90;;;;;;5064886;28;20581;-81
2023/01/25 08:39:05;;;;;;;20.37;14.20;;;1.10;99.90;;;;;;5067905;28;20478;-81
2023/01/25 08:41:35;;;;;;;22.23;13.83;;;1.00;99.90;;;;;;5067973;28;20517;-81
2023/01/25 08:44:03;;;;;;;22.00;14.33;;;0.90;99.90;;;;;;5068682;28;20540;-82
2023/01/25 08:46:31;;;;;;;27.10;13.40;;;1.00;99.90;;;;;;5061284;28;20498;-81
2023/01/25 08:49:00;;;;;;;23.10;13.23;;;1.10;99.90;;;;;;5062145;28;20483;-81
2023/01/25 08:51:28;;;;;;;19.03;12.70;;;1.10;99.90;;;;;;5057869;28;21070;-82
2023/01/25 08:53:55;;;;;;;19.00;12.63;;;1.00;99.90;;;;;;5064741;28;20459;-82
2023/01/25 08:56:23;;;;;;;17.57;12.00;;;1.00;99.90;;;;;;5057580;28;20479;-82
2023/01/25 08:58:53;;;;;;;21.70;14.03;;;1.00;99.90;;;;;;5052210;28;20525;-82
2023/01/25 09:01:22;;;;;;;30.47;17.07;;;1.00;99.90;;;;;;5058115;28;20531;-82
2023/01/25 09:03:53;;;;;;;24.97;15.13;;;1.10;99.90;;;;;;5058379;28;20545;-81
2023/01/25 09:06:20;;;;;;;24.10;15.00;;;1.10;99.90;;;;;;5057138;28;20534;-81
2023/01/25 09:08:51;;;;;;;21.23;12.27;;;1.10;99.90;;;;;;5057859;28;20464;-81
2023/01/25 09:11:21;;;;;;;24.37;15.60;;;1.10;99.90;;;;;;5059853;28;20935;-81
2023/01/25 09:13:50;;;;;;;23.00;13.27;;;0.90;99.90;;;;;;5055019;28;21188;-81
2023/01/25 09:16:27;;;;;;;22.60;12.70;;;1.10;99.90;;;;;;5061983;28;21145;-81
2023/01/25 09:18:54;;;;;;;27.83;13.90;;;1.20;99.90;;;;;;5056653;28;20467;-81
2023/01/25 09:21:23;;;;;;;27.27;16.37;;;1.20;99.90;;;;;;5059152;28;20847;-81
2023/01/25 09:23:52;;;;;;;24.17;14.10;;;1.10;99.90;;;;;;5060709;28;20462;-81
2023/01/25 09:26:19;;;;;;;29.33;17.70;;;1.20;99.90;;;;;;5064085;28;20512;-81
2023/01/25 09:28:49;;;;;;;18.80;12.43;;;1.20;99.90;;;;;;5059542;28;20464;-80
2023/01/25 09:31:20;;;;;;;22.03;13.80;;;1.20;99.90;;;;;;5061259;28;20522;-81
2023/01/25 09:33:48;;;;;;;21.87;14.07;;;1.10;99.90;;;;;;5057786;28;20585;-81
2023/01/25 09:36:15;;;;;;;19.87;12.40;;;1.20;99.90;;;;;;5060437;28;20882;-82
2023/01/25 09:38:42;;;;;;;25.73;15.33;;;1.20;99.90;;;;;;5066622;28;20521;-81
2023/01/25 09:41:25;;;;;;;20.80;12.60;;;1.10;99.90;;;;;;5055752;28;20854;-81
2023/01/25 09:44:22;;;;;;;19.00;11.67;;;1.10;99.90;;;;;;5062880;28;20475;-81
2023/01/25 09:46:53;;;;;;;18.20;11.37;;;1.10;99.90;;;;;;5061604;28;20444;-81
2023/01/25 09:49:34;;;;;;;17.23;13.00;;;1.20;99.90;;;;;;5060614;28;20541;-81
2023/01/25 09:52:15;;;;;;;20.23;12.33;;;1.20;99.90;;;;;;5057341;28;20873;-82
2023/01/25 09:54:47;;;;;;;18.63;11.30;;;1.30;99.90;;;;;;5064085;28;20521;-81
2023/01/25 09:57:17;;;;;;;20.47;10.43;;;1.30;99.90;;;;;;5058779;28;20461;-82
2023/01/25 09:59:50;;;;;;;22.73;12.77;;;1.30;99.90;;;;;;5063358;28;20552;-80
2023/01/25 10:02:35;;;;;;;20.80;12.90;;;1.40;99.90;;;;;;5062488;28;20589;-81
2023/01/25 10:05:08;;;;;;;22.30;14.80;;;1.30;99.90;;;;;;5053698;28;20572;-82
2023/01/25 10:07:53;;;;;;;18.37;10.57;;;1.20;99.90;;;;;;5058277;28;20517;-82
2023/01/25 10:10:26;;;;;;;18.50;11.93;;;1.30;99.90;;;;;;5054998;28;20488;-82
2023/01/25 10:12:53;;;;;;;22.30;11.43;;;1.30;99.90;;;;;;5058843;28;20576;-81
2023/01/25 10:15:29;;;;;;;19.10;12.30;;;1.20;99.90;;;;;;5056461;28;20469;-82
2023/01/25 10:18:04;;;;;;;19.40;12.70;;;1.30;99.90;;;;;;5049746;28;20468;-81
2023/01/25 10:20:38;;;;;;;13.87;10.63;;;1.30;99.90;;;;;;5050644;28;20559;-81
2023/01/25 10:23:30;;;;;;;15.90;11.00;;;1.30;99.90;;;;;;5059984;28;20478;-81
2023/01/25 10:25:58;;;;;;;19.10;10.13;;;1.30;99.90;;;;;;5057275;28;20546;-81
2023/01/25 10:28:39;;;;;;;14.77;8.67;;;1.30;99.90;;;;;;5059623;28;20463;-81
2023/01/25 10:31:18;;;;;;;18.10;10.70;;;1.30;99.90;;;;;;5055091;28;20502;-81
2023/01/25 10:33:49;;;;;;;13.80;9.93;;;1.40;99.90;;;;;;5061020;28;20951;-81
2023/01/25 10:36:25;;;;;;;18.80;11.00;;;1.50;99.90;;;;;;5058500;28;20471;-81
2023/01/25 10:38:58;;;;;;;14.33;9.23;;;1.40;99.90;;;;;;5054749;28;20458;-81
2023/01/25 10:41:31;;;;;;;16.50;9.50;;;1.30;99.90;;;;;;5065405;28;21160;-82
2023/01/25 10:46:50;;;;;;;18.30;9.93;;;1.40;99.90;;;;;;5075850;28;20443;-81
2023/01/25 10:49:23;;;;;;;15.73;8.33;;;1.40;99.90;;;;;;5057976;28;20514;-82
2023/01/25 10:51:50;;;;;;;18.00;9.43;;;1.40;99.90;;;;;;5056604;28;20613;-81
2023/01/25 10:54:17;;;;;;;17.90;9.00;;;1.40;99.90;;;;;;5059033;28;20488;-82
2023/01/25 10:56:46;;;;;;;15.10;9.73;;;1.50;99.90;;;;;;5077867;28;20538;-82
2023/01/25 10:59:20;;;;;;;16.50;11.03;;;1.50;99.90;;;;;;5069646;28;20928;-79
2023/01/25 11:01:48;;;;;;;14.60;9.70;;;1.40;99.90;;;;;;5070956;28;20504;-79
2023/01/25 11:04:34;;;;;;;11.17;8.27;;;1.50;99.90;;;;;;5070774;28;21015;-79
2023/01/25 11:07:04;;;;;;;15.07;9.77;;;1.60;99.90;;;;;;5070769;28;20495;-80
2023/01/25 11:09:34;;;;;;;15.00;8.43;;;1.60;99.90;;;;;;5056429;28;20469;-80
2023/01/25 11:12:02;;;;;;;17.40;9.93;;;1.60;99.90;;;;;;5055760;28;20484;-80
2023/01/25 11:14:31;;;;;;;11.93;8.37;;;1.50;99.90;;;;;;5057635;28;20519;-80
2023/01/25 11:17:01;;;;;;;17.37;9.43;;;1.40;99.90;;;;;;5053868;28;20456;-80
2023/01/25 11:19:33;;;;;;;17.27;9.07;;;1.60;99.90;;;;;;5059179;28;20835;-80
2023/01/25 11:22:02;;;;;;;12.03;8.83;;;1.60;99.90;;;;;;5053398;28;20555;-80
2023/01/25 11:24:33;;;;;;;11.40;7.27;;;1.60;99.90;;;;;;5053764;28;20461;-80
2023/01/25 11:27:20;;;;;;;11.43;7.60;;;1.70;99.90;;;;;;5067786;28;20544;-80
2023/01/25 11:30:07;;;;;;;17.03;7.57;;;1.50;99.90;;;;;;5062216;28;20475;-80
2023/01/25 11:32:39;;;;;;;10.80;7.83;;;1.50;99.90;;;;;;5060233;28;21008;-80
2023/01/25 11:35:12;;;;;;;13.13;7.83;;;1.50;99.90;;;;;;5052753;28;20476;-83
2023/01/25 11:38:10;;;;;;;15.57;9.27;;;1.60;99.90;;;;;;5060842;28;20562;-81
2023/01/25 11:40:42;;;;;;;11.23;8.10;;;1.70;99.90;;;;;;5061130;28;20916;-82
2023/01/25 11:43:25;;;;;;;12.40;7.40;;;1.60;99.90;;;;;;5057570;28;20573;-82
2023/01/25 11:46:14;;;;;;;12.90;8.60;;;1.60;99.90;;;;;;5059458;28;20560;-82
2023/01/25 11:49:16;;;;;;;14.97;8.27;;;1.60;99.90;;;;;;5057315;28;20492;-82
2023/01/25 11:51:54;;;;;;;13.87;7.47;;;1.60;99.90;;;;;;5056096;28;20471;-83
2023/01/25 11:54:45;;;;;;;25.43;8.87;;;1.60;99.90;;;;;;5067183;28;20576;-82
2023/01/25 11:57:40;;;;;;;11.40;8.20;;;1.60;99.90;;;;;;5067044;28;20468;-82
2023/01/25 12:00:27;;;;;;;12.20;8.40;;;1.60;99.90;;;;;;5053112;28;20540;-82
2023/01/25 12:03:24;;;;;;;12.37;7.83;;;1.70;99.90;;;;;;5060051;28;20965;-82
2023/01/25 12:06:00;;;;;;;16.70;11.30;;;1.70;99.90;;;;;;5033132;28;20487;-82
2023/01/25 12:08:48;;;;;;;16.47;10.47;;;1.70;99.90;;;;;;5065020;28;20463;-82
2023/01/25 12:11:25;;;;;;;15.37;8.43;;;1.70;99.90;;;;;;5054459;28;20929;-82
2023/01/25 12:13:58;;;;;;;14.30;8.93;;;1.70;99.90;;;;;;5056687;28;20508;-82
2023/01/25 12:16:45;;;;;;;15.00;9.40;;;1.70;99.90;;;;;;5056960;28;20500;-83
2023/01/25 12:19:25;;;;;;;13.40;7.63;;;1.80;99.90;;;;;;5055006;28;20460;-82
2023/01/25 12:22:10;;;;;;;15.37;8.50;;;1.70;99.90;;;;;;5062940;28;20509;-82
2023/01/25 12:24:48;;;;;;;14.03;9.43;;;1.80;99.90;;;;;;5064575;28;20994;-82
2023/01/25 12:27:30;;;;;;;13.83;8.33;;;1.80;99.90;;;;;;5062841;28;21078;-82
2023/01/25 12:30:04;;;;;;;14.77;8.13;;;1.60;99.90;;;;;;5063353;28;20452;-82
2023/01/25 12:32:37;;;;;;;14.50;8.17;;;1.70;99.90;;;;;;5064299;28;20474;-82
2023/01/25 12:35:24;;;;;;;18.20;10.77;;;1.80;99.90;;;;;;5050169;28;20536;-83
2023/01/25 12:38:00;;;;;;;18.63;10.83;;;1.70;99.90;;;;;;5056741;28;20467;-82
2023/01/25 12:40:40;;;;;;;19.97;11.77;;;1.70;99.90;;;;;;5067309;28;20494;-82
2023/01/25 12:43:24;;;;;;;14.67;9.67;;;1.70;99.90;;;;;;5067183;28;20573;-82
2023/01/25 12:45:53;;;;;;;18.03;10.77;;;1.60;99.90;;;;;;5060058;28;20569;-82
2023/01/25 12:48:28;;;;;;;17.87;10.07;;;1.50;99.90;;;;;;5063447;28;20541;-83
2023/01/25 12:50:58;;;;;;;15.80;9.27;;;1.40;99.90;;;;;;5059333;28;21088;-82
2023/01/25 12:53:33;;;;;;;16.13;9.73;;;1.40;99.90;;;;;;5066756;28;20545;-83
2023/01/25 12:56:01;;;;;;;14.30;9.10;;;1.30;99.90;;;;;;5063516;28;20459;-82
2023/01/25 12:58:35;;;;;;;16.87;10.93;;;1.30;99.90;;;;;;5062030;28;20464;-81
2023/01/25 13:01:11;;;;;;;16.43;10.63;;;1.30;99.90;;;;;;5061257;28;20507;-81
2023/01/25 13:03:48;;;;;;;12.73;8.00;;;1.30;99.90;;;;;;5066592;28;20927;-82